MMHO/HMO METAR and TAF weather

Enter ICAO airport designator
Station Type Date Time Source
MMHO METAR 2022/06/27 17:40 UTC NOAA

MMHO 271740Z 00000KT 10SM SCT090 BKN200 33/17 A3001 RMK SLP153 57007 958 8/038


Station Type Date Time Source
MMHO Decoded METAR 2022/06/27 17:40 UTC NOAA

Hermosillo, Son., Mexico (MMHO) 29-04N 110-57W
Jun 27, 2022 - 01:40 PM EDT / 2022.06.27 1740 UTC
Wind: Calm:0
Visibility: 10 mile(s):0
Sky conditions: mostly cloudy
Temperature: 91 F (33 C)
Dew Point: 62 F (17 C)
Relative Humidity: 38%
Pressure (altimeter): 30.01 in. Hg (1016 hPa)
Pressure tendency: 0.02 inches (0.7 hPa) lower than three hours ago
ob: MMHO 271740Z 00000KT 10SM SCT090 BKN200 33/17 A3001 RMK SLP153 57007 958 8/038
cycle: 17

Station Type Date Time Source
MMHO TAF 2022/06/27 18:07 UTC NOAA

TAF MMHO 271700Z 2718/2818 22010KT P6SM SCT030 BKN080
TEMPO 2723/2803 3SM TSRA BKN020CB
FM280500 00000KT 5SM RA BKN020 OVC080
FM280900 00000KT P6SM BKN080

Example: see airport list